KNZY/NZY METAR and TAF weather

Enter ICAO airport designator
Station Type Date Time Source
KNZY METAR 2019/10/15 18:52 UTC NOAA

KNZY 151852Z 31012KT 10SM FEW015 22/14 A2998 RMK AO2 SLP152 T02170144


Station Type Date Time Source
KNZY Decoded METAR 2019/10/15 18:52 UTC NOAA

NAS NORTH ISLAND, SAN DIEGO, CA, United States (KNZY) 32-42N 117-13W 14M
Oct 15, 2019 - 02:52 PM EDT / 2019.10.15 1852 UTC
Wind: from the NW (310 degrees) at 14 MPH (12 KT):0
Visibility: 10 mile(s):0
Sky conditions: mostly clear
Temperature: 71.1 F (21.7 C)
Dew Point: 57.9 F (14.4 C)
Relative Humidity: 63%
Pressure (altimeter): 29.98 in. Hg (1015 hPa)
ob: KNZY 151852Z 31012KT 10SM FEW015 22/14 A2998 RMK AO2 SLP152 T02170144
cycle: 19

Station Type Date Time Source
KNZY TAF 2019/10/15 15:03 UTC NOAA

TAF KNZY 1515/1615 VRB06KT 9999 FEW015 QNH2994INS
FM151800 30010KT 9999 SKC QNH2987INS
FM160300 VRB06KT 9999 FEW015 QNH2989INS T24/1522Z T14/1613Z FS30103

Example: see airport list